createdAt,value
2022-09-12T00:00:25.535Z,19.67
2022-09-12T00:02:27.591Z,19.64
2022-09-12T00:04:29.467Z,19.68
2022-09-12T00:06:34.255Z,19.68
2022-09-12T00:08:36.342Z,19.70
2022-09-12T00:10:44.174Z,19.71
2022-09-12T00:12:45.964Z,19.75
2022-09-12T00:14:47.764Z,19.73
2022-09-12T00:16:49.809Z,19.72
2022-09-12T00:18:52.895Z,19.65
2022-09-12T00:20:54.655Z,19.64
2022-09-12T00:22:56.537Z,19.61
2022-09-12T00:24:58.573Z,19.65
2022-09-12T00:27:00.356Z,19.62
2022-09-12T00:29:02.175Z,19.59
2022-09-12T00:31:07.235Z,19.62
2022-09-12T00:33:10.135Z,19.58
2022-09-12T00:35:12.194Z,19.58
2022-09-12T00:37:14.254Z,19.54
2022-09-12T00:39:17.456Z,19.54
2022-09-12T00:41:29.494Z,19.50
2022-09-12T00:43:42.255Z,19.62
2022-09-12T00:45:44.837Z,19.63
2022-09-12T00:47:47.075Z,19.62
2022-09-12T00:49:58.354Z,19.62
2022-09-12T00:52:06.075Z,19.59
2022-09-12T00:54:12.667Z,19.58
2022-09-12T00:56:17.675Z,19.55
2022-09-12T00:58:25.955Z,19.58
2022-09-12T01:00:29.658Z,19.53
2022-09-12T01:02:31.526Z,19.53
2022-09-12T01:04:37.435Z,19.57
2022-09-12T01:06:42.117Z,19.52
2022-09-12T01:08:46.980Z,19.61
2022-09-12T01:10:49.925Z,19.58
2022-09-12T01:12:51.855Z,19.55
2022-09-12T01:14:53.701Z,19.50
2022-09-12T01:16:55.585Z,19.55
2022-09-12T01:19:15.365Z,19.58
2022-09-12T01:21:38.461Z,19.63
2022-09-12T01:24:01.566Z,19.56
2022-09-12T01:26:21.647Z,19.60
2022-09-12T01:28:37.883Z,19.61
2022-09-12T01:30:44.866Z,19.64
2022-09-12T01:33:05.906Z,19.67
2022-09-12T01:35:16.985Z,19.73
2022-09-12T01:37:28.567Z,19.66
2022-09-12T01:39:43.202Z,19.72
2022-09-12T01:41:54.747Z,19.72
2022-09-12T01:44:13.797Z,19.73
2022-09-12T01:46:19.501Z,19.71
2022-09-12T01:48:42.130Z,19.68
2022-09-12T01:50:51.502Z,19.73
2022-09-12T01:53:01.783Z,19.75
2022-09-12T01:55:20.174Z,19.81
2022-09-12T01:57:30.134Z,19.77
2022-09-12T01:59:47.729Z,19.77
2022-09-12T02:01:59.125Z,19.81
2022-09-12T02:04:21.380Z,19.81
2022-09-12T02:06:31.336Z,19.80
2022-09-12T02:08:43.911Z,19.87
2022-09-12T02:10:52.840Z,19.89
2022-09-12T02:15:11.904Z,19.87
2022-09-12T02:17:18.749Z,19.93
2022-09-12T02:19:24.958Z,19.95
2022-09-12T02:21:29.075Z,19.88
2022-09-12T02:23:34.227Z,19.84
2022-09-12T02:25:42.571Z,19.87
2022-09-12T02:27:49.795Z,19.96
2022-09-12T02:29:52.520Z,19.95
2022-09-12T02:32:00.335Z,20.00
2022-09-12T02:34:12.060Z,19.99
2022-09-12T02:36:28.325Z,20.02
2022-09-12T02:38:44.674Z,19.99
2022-09-12T02:40:47.230Z,19.99
2022-09-12T02:42:49.831Z,19.97
2022-09-12T02:44:55.570Z,20.00
2022-09-12T02:47:04.745Z,19.99
2022-09-12T02:49:09.358Z,20.04
2022-09-12T02:51:12.175Z,20.02
2022-09-12T02:53:14.604Z,20.03
2022-09-12T02:55:17.629Z,19.93
2022-09-12T02:57:23.294Z,19.99
2022-09-12T02:59:25.842Z,20.02
2022-09-12T03:01:29.253Z,20.01
2022-09-12T03:03:51.351Z,19.99
2022-09-12T03:05:54.836Z,19.99
2022-09-12T03:08:15.142Z,19.98
2022-09-12T03:10:28.889Z,19.98
2022-09-12T03:12:38.179Z,19.95
2022-09-12T03:15:01.728Z,19.95
2022-09-12T03:17:09.515Z,20.00
2022-09-12T03:19:22.071Z,19.97
2022-09-12T03:21:31.687Z,19.98
2022-09-12T03:23:33.966Z,19.99
2022-09-12T03:27:52.856Z,20.00
2022-09-12T03:31:59.209Z,19.99
2022-09-12T03:34:01.384Z,19.95
2022-09-12T03:36:03.772Z,20.02
2022-09-12T03:38:08.173Z,19.98
2022-09-12T03:40:10.995Z,19.97
2022-09-12T03:42:12.815Z,20.07
2022-09-12T03:44:14.947Z,20.08
2022-09-12T03:46:17.051Z,20.06
2022-09-12T03:48:19.047Z,20.07
2022-09-12T03:50:21.141Z,20.10
2022-09-12T03:54:25.507Z,20.08
2022-09-12T03:56:27.553Z,20.10
2022-09-12T03:58:31.640Z,20.03
2022-09-12T04:00:33.780Z,20.01
2022-09-12T04:02:36.229Z,20.04
2022-09-12T04:06:40.132Z,20.11
2022-09-12T04:08:43.830Z,20.09
2022-09-12T04:10:46.979Z,20.03
2022-09-12T04:12:49.197Z,20.06
2022-09-12T04:14:51.228Z,19.99
2022-09-12T04:16:53.087Z,20.12
2022-09-12T04:18:55.189Z,20.03
2022-09-12T04:20:57.978Z,20.03
2022-09-12T04:22:59.755Z,20.03
2022-09-12T04:25:01.631Z,20.00
2022-09-12T04:27:07.254Z,19.99
2022-09-12T04:29:12.448Z,20.03
2022-09-12T04:31:18.281Z,19.97
2022-09-12T04:33:20.250Z,19.94
2022-09-12T04:35:22.328Z,19.99
2022-09-12T04:37:24.716Z,19.97
2022-09-12T04:39:27.030Z,19.99
2022-09-12T04:41:31.589Z,19.93
2022-09-12T04:43:33.612Z,19.84
2022-09-12T04:45:35.664Z,19.95
2022-09-12T04:47:37.648Z,19.89
2022-09-12T04:49:39.741Z,19.84
2022-09-12T04:53:43.968Z,19.82
2022-09-12T04:55:46.401Z,19.84
2022-09-12T04:57:48.505Z,19.87
2022-09-12T05:01:52.526Z,19.82
2022-09-12T05:03:55.257Z,19.81
2022-09-12T05:05:57.302Z,19.73
2022-09-12T05:10:01.236Z,19.75
2022-09-12T05:12:04.898Z,19.74
2022-09-12T05:18:13.204Z,19.80
2022-09-12T05:20:15.229Z,19.76
2022-09-12T05:22:17.044Z,19.78
2022-09-12T05:24:18.984Z,19.81
2022-09-12T05:26:21.881Z,19.78
2022-09-12T05:28:25.793Z,19.82
2022-09-12T05:30:28.060Z,19.82
2022-09-12T05:34:34.267Z,19.77
2022-09-12T05:36:37.757Z,19.76
2022-09-12T05:38:40.235Z,19.85
2022-09-12T05:40:42.256Z,19.81
2022-09-12T05:42:44.188Z,19.80
2022-09-12T05:44:45.806Z,19.82
2022-09-12T05:46:51.066Z,19.79
2022-09-12T05:48:56.499Z,19.78
2022-09-12T05:51:02.934Z,19.78
2022-09-12T05:53:05.224Z,19.82
2022-09-12T05:55:07.659Z,19.79
2022-09-12T05:57:09.509Z,19.78
2022-09-12T05:59:13.510Z,19.79
2022-09-12T06:01:18.173Z,19.80
2022-09-12T06:03:20.448Z,19.79
2022-09-12T06:05:22.432Z,19.80
2022-09-12T06:07:24.346Z,19.81
2022-09-12T06:09:26.270Z,19.78
2022-09-12T06:11:31.244Z,19.69
2022-09-12T06:15:37.685Z,19.82
2022-09-12T06:17:39.534Z,19.88
2022-09-12T06:21:43.173Z,19.95
2022-09-12T06:23:46.423Z,19.96
2022-09-12T06:25:50.415Z,20.02
2022-09-12T06:27:52.345Z,20.02
2022-09-12T06:29:54.259Z,20.04
2022-09-12T06:31:56.185Z,20.02
2022-09-12T06:34:01.317Z,20.02
2022-09-12T06:36:12.583Z,20.04
2022-09-12T06:38:14.736Z,20.09
2022-09-12T06:40:16.762Z,20.12
2022-09-12T06:42:20.184Z,20.12
2022-09-12T06:44:22.925Z,20.16
2022-09-12T06:46:25.785Z,20.18
2022-09-12T06:48:27.915Z,20.21
2022-09-12T06:50:29.756Z,20.21
2022-09-12T06:52:31.534Z,20.17
2022-09-12T06:54:33.475Z,20.17
2022-09-12T06:56:35.235Z,20.23
2022-09-12T06:58:37.321Z,20.28
2022-09-12T07:00:39.784Z,20.31
2022-09-12T07:02:41.904Z,20.31
2022-09-12T07:04:43.705Z,20.35
2022-09-12T07:06:45.841Z,20.37
2022-09-12T07:08:48.731Z,20.41
2022-09-12T07:10:50.899Z,20.43
2022-09-12T07:12:53.032Z,20.46
2022-09-12T07:14:55.150Z,20.50
2022-09-12T07:16:57.235Z,20.42
2022-09-12T07:19:01.620Z,20.51
2022-09-12T07:21:04.533Z,20.51
2022-09-12T07:25:08.229Z,20.52
2022-09-12T07:27:10.351Z,20.60
2022-09-12T07:31:38.425Z,20.66
2022-09-12T07:33:41.310Z,20.67
2022-09-12T07:35:43.207Z,20.71
2022-09-12T07:37:45.167Z,20.66
2022-09-12T07:39:47.174Z,20.73
2022-09-12T07:41:49.650Z,20.75
2022-09-12T07:43:58.346Z,20.78
2022-09-12T07:45:59.970Z,20.82
2022-09-12T07:48:02.132Z,20.84
2022-09-12T07:50:04.152Z,20.88
2022-09-12T07:52:05.842Z,20.90
2022-09-12T07:54:09.335Z,20.94
2022-09-12T07:56:12.646Z,20.97
2022-09-12T07:58:14.239Z,21.01
2022-09-12T08:00:16.659Z,21.02
2022-09-12T08:02:18.364Z,21.00
2022-09-12T08:04:20.017Z,20.97
2022-09-12T08:06:25.649Z,20.98
2022-09-12T08:08:27.242Z,21.00
2022-09-12T08:10:28.840Z,21.04
2022-09-12T08:12:32.411Z,20.99
2022-09-12T08:14:34.022Z,21.01
2022-09-12T08:16:35.824Z,21.09
2022-09-12T08:18:38.383Z,21.03
2022-09-12T08:20:40.030Z,21.06
2022-09-12T08:22:42.389Z,21.13
2022-09-12T08:24:44.525Z,21.18
2022-09-12T08:26:47.493Z,21.21
2022-09-12T08:28:49.903Z,21.24
2022-09-12T08:30:53.016Z,21.28
2022-09-12T08:32:55.000Z,21.37
2022-09-12T08:34:56.656Z,21.37
2022-09-12T08:36:58.550Z,21.41
2022-09-12T08:39:08.572Z,21.46
2022-09-12T08:41:18.957Z,21.48
2022-09-12T08:43:56.059Z,21.49
2022-09-12T08:46:06.925Z,21.59
2022-09-12T08:48:11.272Z,21.57
2022-09-12T08:50:20.395Z,21.66
2022-09-12T08:52:44.091Z,21.61
2022-09-12T08:54:46.099Z,21.65
2022-09-12T08:56:48.779Z,21.70
2022-09-12T08:58:51.585Z,21.68
2022-09-12T09:01:10.093Z,21.73
2022-09-12T09:03:32.765Z,21.76
2022-09-12T09:05:58.351Z,21.76
2022-09-12T09:08:18.867Z,21.74
2022-09-12T09:10:20.488Z,21.81
2022-09-12T09:12:46.747Z,21.86
2022-09-12T09:15:03.625Z,21.89
2022-09-12T09:17:12.940Z,21.94
2022-09-12T09:19:21.618Z,22.02
2022-09-12T09:21:41.495Z,22.04
2022-09-12T09:23:48.065Z,22.14
2022-09-12T09:26:08.388Z,22.30
2022-09-12T09:28:37.226Z,22.36
2022-09-12T09:30:42.433Z,22.41
2022-09-12T09:32:49.543Z,22.42
2022-09-12T09:34:52.502Z,22.46
2022-09-12T09:37:09.123Z,22.42
2022-09-12T09:39:17.145Z,22.46
2022-09-12T09:41:36.317Z,22.49
2022-09-12T09:43:39.197Z,22.51
2022-09-12T09:45:44.562Z,22.58
2022-09-12T09:47:55.291Z,22.56
2022-09-12T09:49:57.687Z,22.63
2022-09-12T09:52:03.908Z,22.66
2022-09-12T09:54:12.627Z,22.69
2022-09-12T09:56:33.599Z,22.80
2022-09-12T09:58:36.737Z,22.90
2022-09-12T10:00:39.912Z,23.00
2022-09-12T10:02:42.427Z,23.06
2022-09-12T10:04:57.165Z,23.25
2022-09-12T10:07:02.027Z,23.32
2022-09-12T10:09:13.481Z,23.42
2022-09-12T10:11:18.230Z,23.51
2022-09-12T10:13:28.775Z,23.52
2022-09-12T10:15:30.959Z,23.69
2022-09-12T10:17:51.678Z,23.74
2022-09-12T10:20:10.526Z,23.81
2022-09-12T10:22:20.160Z,23.91
2022-09-12T10:24:43.708Z,23.94
2022-09-12T10:26:56.436Z,24.02
2022-09-12T10:29:10.821Z,24.11
2022-09-12T10:31:29.444Z,24.18
2022-09-12T10:33:40.395Z,24.27
2022-09-12T10:35:50.166Z,24.29
2022-09-12T10:37:57.023Z,24.30
2022-09-12T10:40:00.873Z,24.36
2022-09-12T10:42:04.354Z,24.31
2022-09-12T10:44:10.111Z,24.30
2022-09-12T10:46:17.835Z,24.40
2022-09-12T10:48:33.238Z,24.40
2022-09-12T10:50:43.148Z,24.43
2022-09-12T10:52:45.054Z,24.47
2022-09-12T10:54:46.826Z,24.52
2022-09-12T10:57:21.239Z,24.61
2022-09-12T10:59:28.843Z,24.69
2022-09-12T11:01:36.630Z,24.73
2022-09-12T11:03:53.638Z,24.81
2022-09-12T11:05:58.779Z,24.89
2022-09-12T11:08:20.157Z,24.92
2022-09-12T11:10:40.470Z,25.07
2022-09-12T11:13:33.989Z,25.25
2022-09-12T11:15:41.287Z,25.42
2022-09-12T11:17:55.339Z,25.51
2022-09-12T11:20:33.848Z,25.61
2022-09-12T11:22:41.613Z,25.65
2022-09-12T11:25:06.555Z,25.63
2022-09-12T11:27:48.049Z,25.76
2022-09-12T11:30:04.194Z,25.91
2022-09-12T11:32:30.750Z,25.96
2022-09-12T11:34:40.539Z,26.03
2022-09-12T11:37:09.858Z,26.25
2022-09-12T11:39:15.883Z,26.19
2022-09-12T11:41:25.456Z,26.16
2022-09-12T11:43:45.386Z,26.19
2022-09-12T11:45:49.405Z,25.98
2022-09-12T11:47:58.219Z,25.99
2022-09-12T11:50:04.145Z,26.09
2022-09-12T11:52:22.072Z,26.16
2022-09-12T11:54:54.278Z,26.18
2022-09-12T11:57:06.606Z,26.17
2022-09-12T11:59:45.027Z,26.30
2022-09-12T12:01:51.363Z,26.36
2022-09-12T12:03:55.829Z,26.45
2022-09-12T12:06:26.795Z,26.44
2022-09-12T12:08:32.031Z,26.45
2022-09-12T12:10:38.661Z,26.56
2022-09-12T12:12:42.783Z,26.53
2022-09-12T12:14:50.053Z,26.47
2022-09-12T12:16:52.372Z,26.49
2022-09-12T12:19:14.843Z,26.69
2022-09-12T12:21:38.093Z,26.61
2022-09-12T12:23:39.999Z,26.68
2022-09-12T12:25:53.667Z,26.70
2022-09-12T12:28:01.996Z,26.81
2022-09-12T12:30:04.168Z,26.92
2022-09-12T12:32:06.149Z,27.01
2022-09-12T12:34:23.686Z,27.18
2022-09-12T12:36:40.508Z,27.35
2022-09-12T12:38:42.409Z,27.31
2022-09-12T12:40:44.169Z,27.46
2022-09-12T12:42:45.817Z,27.53
2022-09-12T12:44:51.526Z,27.67
2022-09-12T12:47:47.854Z,27.65
2022-09-12T12:50:13.541Z,27.78
2022-09-12T12:52:19.793Z,27.84
2022-09-12T12:54:40.114Z,27.76
2022-09-12T12:56:44.242Z,27.74
2022-09-12T12:58:46.335Z,27.70
2022-09-12T13:01:02.533Z,27.75
2022-09-12T13:03:07.030Z,27.65
2022-09-12T13:05:22.941Z,27.71
2022-09-12T13:07:51.533Z,27.71
2022-09-12T13:09:55.090Z,27.62
2022-09-12T13:12:09.634Z,27.63
2022-09-12T13:14:47.492Z,27.67
2022-09-12T13:16:59.309Z,27.75
2022-09-12T13:19:17.457Z,27.68
2022-09-12T13:21:21.719Z,27.80
2022-09-12T13:23:29.684Z,27.99
2022-09-12T13:25:37.018Z,28.20
2022-09-12T13:27:56.557Z,28.38
2022-09-12T13:30:17.939Z,28.56
2022-09-12T13:32:20.188Z,28.67
2022-09-12T13:34:35.430Z,28.55
2022-09-12T13:36:59.070Z,28.55
2022-09-12T13:39:18.260Z,28.71
2022-09-12T13:41:57.961Z,28.71
2022-09-12T13:44:02.878Z,28.77
2022-09-12T13:46:06.850Z,28.74
2022-09-12T13:48:18.648Z,28.60
2022-09-12T13:50:24.605Z,28.62
2022-09-12T13:52:30.855Z,28.56
2022-09-12T13:54:38.088Z,28.57
2022-09-12T13:56:48.778Z,28.64
2022-09-12T13:59:01.742Z,28.67
2022-09-12T14:01:16.249Z,28.64
2022-09-12T14:03:49.281Z,28.77
2022-09-12T14:05:57.657Z,28.95
2022-09-12T14:08:04.699Z,29.01
2022-09-12T14:10:07.711Z,29.13
2022-09-12T14:12:43.979Z,29.16
2022-09-12T14:14:50.059Z,29.14
2022-09-12T14:16:54.993Z,29.12
2022-09-12T14:18:57.653Z,29.08
2022-09-12T14:21:23.480Z,29.12
2022-09-12T14:23:30.738Z,29.08
2022-09-12T14:25:43.173Z,29.09
2022-09-12T14:27:50.858Z,28.91
2022-09-12T14:30:09.199Z,28.86
2022-09-12T14:32:24.754Z,28.73
2022-09-12T14:34:26.491Z,28.71
2022-09-12T14:36:35.848Z,28.60
2022-09-12T14:38:45.059Z,28.67
2022-09-12T14:40:49.435Z,28.65
2022-09-12T14:42:53.117Z,28.84
2022-09-12T14:45:06.163Z,28.91
2022-09-12T14:47:14.585Z,28.91
2022-09-12T14:49:21.534Z,28.92
2022-09-12T14:51:31.309Z,28.83
2022-09-12T14:53:36.096Z,28.70
2022-09-12T14:55:46.443Z,28.73
2022-09-12T14:57:50.129Z,28.71
2022-09-12T14:59:51.748Z,28.83
2022-09-12T15:02:21.083Z,28.84
2022-09-12T15:04:42.237Z,28.86
2022-09-12T15:06:44.113Z,28.88
2022-09-12T15:08:45.875Z,28.84
2022-09-12T15:10:48.141Z,28.69
2022-09-12T15:12:50.268Z,28.68
2022-09-12T15:14:51.878Z,28.71
2022-09-12T15:16:53.508Z,28.50
2022-09-12T15:18:55.199Z,28.34
2022-09-12T15:21:02.833Z,28.32
2022-09-12T15:23:09.538Z,28.18
2022-09-12T15:25:13.961Z,28.08
2022-09-12T15:27:21.307Z,27.82
2022-09-12T15:29:23.772Z,27.77
2022-09-12T15:31:28.093Z,27.81
2022-09-12T15:33:30.490Z,27.71
2022-09-12T15:35:34.492Z,27.56
2022-09-12T15:37:37.312Z,27.47
2022-09-12T15:39:40.085Z,27.45
2022-09-12T15:41:45.298Z,27.26
2022-09-12T15:43:48.871Z,27.23
2022-09-12T15:45:52.212Z,27.18
2022-09-12T15:47:54.730Z,27.10
2022-09-12T15:49:57.414Z,27.04
2022-09-12T15:52:01.711Z,27.09
2022-09-12T15:54:06.134Z,27.08
2022-09-12T15:56:08.735Z,27.01
2022-09-12T15:58:11.582Z,26.92
2022-09-12T16:00:19.038Z,26.94
2022-09-12T16:02:21.711Z,26.87
2022-09-12T16:04:26.592Z,26.82
2022-09-12T16:06:34.977Z,26.81
2022-09-12T16:08:39.487Z,26.77
2022-09-12T16:10:44.419Z,26.85
2022-09-12T16:12:47.550Z,26.83
2022-09-12T16:14:50.139Z,26.79
2022-09-12T16:16:58.234Z,26.90
2022-09-12T16:19:00.638Z,26.95
2022-09-12T16:21:03.105Z,26.88
2022-09-12T16:23:05.408Z,26.96
2022-09-12T16:25:08.698Z,26.97
2022-09-12T16:27:11.385Z,26.97
2022-09-12T16:29:14.990Z,27.07
2022-09-12T16:31:17.737Z,26.94
2022-09-12T16:33:20.100Z,26.96
2022-09-12T16:35:23.120Z,26.93
2022-09-12T16:37:25.496Z,26.89
2022-09-12T16:39:27.984Z,26.82
2022-09-12T16:41:30.468Z,26.81
2022-09-12T16:43:34.662Z,26.84
2022-09-12T16:45:37.179Z,26.85
2022-09-12T16:47:40.146Z,26.68
2022-09-12T16:49:42.855Z,26.67
2022-09-12T16:51:48.195Z,26.65
2022-09-12T16:53:51.515Z,26.59
2022-09-12T16:55:54.013Z,26.56
2022-09-12T16:57:56.754Z,26.50
2022-09-12T16:59:59.338Z,26.44
2022-09-12T17:02:03.854Z,26.37
2022-09-12T17:04:07.082Z,26.29
2022-09-12T17:06:12.483Z,26.18
2022-09-12T17:08:15.211Z,26.14
2022-09-12T17:10:18.967Z,26.14
2022-09-12T17:12:21.483Z,26.12
2022-09-12T17:14:24.724Z,26.05
2022-09-12T17:16:28.895Z,26.03
2022-09-12T17:18:31.729Z,25.94
2022-09-12T17:20:36.657Z,25.97
2022-09-12T17:22:39.750Z,25.91
2022-09-12T17:24:42.427Z,25.90
2022-09-12T17:26:45.281Z,25.82
2022-09-12T17:28:47.671Z,25.83
2022-09-12T17:30:58.178Z,25.81
2022-09-12T17:33:05.159Z,25.75
2022-09-12T17:35:17.858Z,25.77
2022-09-12T17:37:22.082Z,25.71
2022-09-12T17:39:24.724Z,25.67
2022-09-12T17:41:30.021Z,25.62
2022-09-12T17:43:32.988Z,25.60
2022-09-12T17:45:36.038Z,25.66
2022-09-12T17:47:38.231Z,25.58
2022-09-12T17:49:42.030Z,25.54
2022-09-12T17:51:45.925Z,25.55
2022-09-12T17:53:49.965Z,25.55
2022-09-12T17:55:54.301Z,25.58
2022-09-12T17:57:56.974Z,25.50
2022-09-12T18:00:00.649Z,25.48
2022-09-12T18:02:12.801Z,25.45
2022-09-12T18:04:16.002Z,25.43
2022-09-12T18:06:18.477Z,25.36
2022-09-12T18:08:22.781Z,25.35
2022-09-12T18:10:28.438Z,25.34
2022-09-12T18:12:31.036Z,25.37
2022-09-12T18:14:34.742Z,25.34
2022-09-12T18:16:37.283Z,25.31
2022-09-12T18:18:40.306Z,25.32
2022-09-12T18:20:51.462Z,25.33
2022-09-12T18:22:54.040Z,25.32
2022-09-12T18:24:56.650Z,25.30
2022-09-12T18:26:59.866Z,25.28
2022-09-12T18:29:02.602Z,25.26
2022-09-12T18:31:10.423Z,25.23
2022-09-12T18:33:12.133Z,25.23
2022-09-12T18:35:14.879Z,25.15
2022-09-12T18:37:18.705Z,25.18
2022-09-12T18:39:26.708Z,25.15
2022-09-12T18:41:30.553Z,25.13
2022-09-12T18:43:38.433Z,25.14
2022-09-12T18:45:40.951Z,25.08
2022-09-12T18:47:43.758Z,25.00
2022-09-12T18:49:46.278Z,25.03
2022-09-12T18:51:48.742Z,24.97
2022-09-12T18:53:56.632Z,25.02
2022-09-12T18:56:04.184Z,24.96
2022-09-12T18:58:06.702Z,24.94
2022-09-12T19:00:12.471Z,24.96
2022-09-12T19:02:16.822Z,24.92
2022-09-12T19:04:19.705Z,24.93
2022-09-12T19:06:25.631Z,24.85
2022-09-12T19:08:28.172Z,24.83
2022-09-12T19:10:31.442Z,24.76
2022-09-12T19:12:33.913Z,24.69
2022-09-12T19:14:37.723Z,24.71
2022-09-12T19:16:41.462Z,24.69
2022-09-12T19:18:44.154Z,24.64
2022-09-12T19:20:52.573Z,24.61
2022-09-12T19:22:55.405Z,24.62
2022-09-12T19:24:58.182Z,24.61
2022-09-12T19:27:00.999Z,24.55
2022-09-12T19:29:04.414Z,24.57
2022-09-12T19:31:10.105Z,24.48
2022-09-12T19:33:12.880Z,24.53
2022-09-12T19:35:15.895Z,24.53
2022-09-12T19:37:19.155Z,24.52
2022-09-12T19:39:22.001Z,24.46
2022-09-12T19:41:24.676Z,24.46
2022-09-12T19:43:27.467Z,24.47
2022-09-12T19:45:30.146Z,24.48
2022-09-12T19:47:33.023Z,24.48
2022-09-12T19:49:35.756Z,24.46
2022-09-12T19:51:38.598Z,24.46
2022-09-12T19:53:42.879Z,24.46
2022-09-12T19:55:46.490Z,24.44
2022-09-12T19:57:49.617Z,24.44
2022-09-12T19:59:52.439Z,24.40
2022-09-12T20:01:55.407Z,24.38
2022-09-12T20:03:59.256Z,24.38
2022-09-12T20:06:06.248Z,24.41
2022-09-12T20:08:09.111Z,24.40
2022-09-12T20:10:11.685Z,24.40
2022-09-12T20:12:15.396Z,24.36
2022-09-12T20:14:18.014Z,24.38
2022-09-12T20:16:29.393Z,24.37
2022-09-12T20:18:32.422Z,24.35
2022-09-12T20:20:35.089Z,24.37
2022-09-12T20:22:40.193Z,24.38
2022-09-12T20:24:43.037Z,24.36
2022-09-12T20:26:45.801Z,24.37
2022-09-12T20:28:48.637Z,24.36
2022-09-12T20:30:51.350Z,24.34
2022-09-12T20:32:53.732Z,24.33
2022-09-12T20:34:56.570Z,24.32
2022-09-12T20:36:58.515Z,24.29
2022-09-12T20:39:02.860Z,24.29
2022-09-12T20:41:07.976Z,24.28
2022-09-12T20:43:09.932Z,24.29
2022-09-12T20:45:14.173Z,24.27
2022-09-12T20:47:16.444Z,24.26
2022-09-12T20:49:19.806Z,24.26
2022-09-12T20:51:22.935Z,24.25
2022-09-12T20:53:24.812Z,24.24
2022-09-12T20:55:26.585Z,24.23
2022-09-12T20:57:29.895Z,24.21
2022-09-12T20:59:31.922Z,24.19
2022-09-12T21:01:33.898Z,24.17
2022-09-12T21:03:39.643Z,24.15
2022-09-12T21:05:45.472Z,24.12
2022-09-12T21:07:47.164Z,24.11
2022-09-12T21:09:49.145Z,24.09
2022-09-12T21:11:50.800Z,24.05
2022-09-12T21:13:53.676Z,24.04
2022-09-12T21:16:03.197Z,24.03
2022-09-12T21:18:06.658Z,24.01
2022-09-12T21:20:11.378Z,23.99
2022-09-12T21:22:13.323Z,23.97
2022-09-12T21:24:15.262Z,23.95
2022-09-12T21:26:18.578Z,23.95
2022-09-12T21:28:21.487Z,23.94
2022-09-12T21:30:23.270Z,23.94
2022-09-12T21:32:25.659Z,23.92
2022-09-12T21:34:27.280Z,23.92
2022-09-12T21:36:28.942Z,23.91
2022-09-12T21:38:31.580Z,23.91
2022-09-12T21:40:33.468Z,23.92
2022-09-12T21:42:35.057Z,23.92
2022-09-12T21:44:36.807Z,23.91
2022-09-12T21:46:40.486Z,23.89
2022-09-12T21:48:43.544Z,23.88
2022-09-12T21:50:50.666Z,23.88
2022-09-12T21:52:53.305Z,23.89
2022-09-12T21:54:57.045Z,23.87
2022-09-12T21:56:58.988Z,23.87
2022-09-12T21:59:01.117Z,23.87
2022-09-12T22:01:06.341Z,23.87
2022-09-12T22:03:10.569Z,23.87
2022-09-12T22:05:12.399Z,23.87
2022-09-12T22:07:19.439Z,23.86
2022-09-12T22:09:21.263Z,23.86
2022-09-12T22:11:24.221Z,23.85
2022-09-12T22:13:26.532Z,23.85
2022-09-12T22:15:43.838Z,23.82
2022-09-12T22:17:46.117Z,23.81
2022-09-12T22:19:48.457Z,23.82
2022-09-12T22:22:09.678Z,23.79
2022-09-12T22:24:30.267Z,23.77
2022-09-12T22:26:39.620Z,23.76
2022-09-12T22:28:43.108Z,23.75
2022-09-12T22:30:48.800Z,23.73
2022-09-12T22:32:52.120Z,23.72
2022-09-12T22:34:54.409Z,23.71
2022-09-12T22:36:57.552Z,23.70
2022-09-12T22:39:00.415Z,23.69
2022-09-12T22:41:07.207Z,23.68
2022-09-12T22:43:09.514Z,23.68
2022-09-12T22:45:12.369Z,23.68
2022-09-12T22:47:14.731Z,23.66
2022-09-12T22:49:16.518Z,23.64
2022-09-12T22:51:19.566Z,23.64
2022-09-12T22:53:21.697Z,23.60
2022-09-12T22:55:23.861Z,23.60
2022-09-12T22:57:26.027Z,23.59
2022-09-12T22:59:28.119Z,23.58
2022-09-12T23:01:32.248Z,23.57
2022-09-12T23:03:34.639Z,23.55
2022-09-12T23:05:37.510Z,23.54
2022-09-12T23:07:44.375Z,23.52
2022-09-12T23:09:46.555Z,23.51
2022-09-12T23:11:48.324Z,23.49
2022-09-12T23:13:51.269Z,23.48
2022-09-12T23:16:05.313Z,23.47
2022-09-12T23:18:07.529Z,23.46
2022-09-12T23:20:09.526Z,23.45
2022-09-12T23:22:11.658Z,23.38
2022-09-12T23:24:13.823Z,23.42
2022-09-12T23:26:19.403Z,23.41
2022-09-12T23:28:21.776Z,23.42
2022-09-12T23:30:23.822Z,23.41
2022-09-12T23:32:25.832Z,23.39
2022-09-12T23:34:27.919Z,23.39
2022-09-12T23:36:30.678Z,23.38
2022-09-12T23:38:34.158Z,23.38
2022-09-12T23:40:36.394Z,23.33
2022-09-12T23:42:38.385Z,23.35
2022-09-12T23:44:40.564Z,23.35
2022-09-12T23:46:42.664Z,23.34
2022-09-12T23:48:45.303Z,23.35
2022-09-12T23:50:48.593Z,23.35
2022-09-12T23:52:50.557Z,23.35
2022-09-12T23:54:52.486Z,23.30
2022-09-12T23:56:54.537Z,23.30
2022-09-12T23:58:56.530Z,23.31
